CY-0007 weather

Marki Airfield
Nicosia District, Cyprus

Public forecast

Using degrees Celsius for public forecast. Weather courtesy of forecast.io.

METAR (pilot weather report)

Closest report is Ercan International Airport, 12.3 nm (22.8 km) NE. Retrieved 2019/06/17 10:20 UTC (0 seconds ago):

LCEN 171020Z 26008KT 170V310 9999 FEW025CB SCT030 30/18 Q1008 NOSIG RMK RWY11 29007KT

TAF (pilot weather forecast)

Closest forecast is Ercan International Airport, 12.3 nm (22.8 km) NE. Retrieved 2019/06/17 06:03 UTC (4 hours ago):

TAF TAF LCEN 170440Z 1706/1806 24015KT 9999 SCT025 PROB30 TEMPO 1710/1714 24015G25KT 4000 TSRA FEW020CB BKN025 BKN080